Time;durP1;ratioP1;P1;durP2;ratioP2;P2;SDS_P1;SDS_P2;PMS_P1;PMS_P2;Temp;Humidity;BMP_temperature;BMP_pressure;BME280_temperature;BME280_humidity;BME280_pressure;Samples;Min_cycle;Max_cycle;Signal;HPM_P1;HPM_P2
2022/04/18 00:01:15;;;;;;;2.72;2.10;;;;;;;;;;7707268;23;20036;-77
2022/04/18 00:04:19;;;;;;;2.50;2.00;;;;;;;;;;7708022;23;20027;-76
2022/04/18 00:07:22;;;;;;;4.63;2.40;;;;;;;;;;7710064;23;20352;-77
2022/04/18 00:10:25;;;;;;;3.65;2.33;;;;;;;;;;7709364;23;20019;-76
2022/04/18 00:13:28;;;;;;;2.60;1.85;;;;;;;;;;7709065;23;20017;-75
2022/04/18 00:16:33;;;;;;;3.65;2.30;;;;;;;;;;7722194;23;20021;-78
2022/04/18 00:19:42;;;;;;;3.55;2.10;;;;;;;;;;7722449;23;20017;-76
2022/04/18 00:22:47;;;;;;;3.63;2.53;;;;;;;;;;7713399;23;20356;-76
2022/04/18 00:25:53;;;;;;;3.08;2.25;;;;;;;;;;7710410;23;20326;-76
2022/04/18 00:28:58;;;;;;;4.32;2.58;;;;;;;;;;7720553;23;20024;-78
2022/04/18 00:32:01;;;;;;;4.22;2.22;;;;;;;;;;7709185;23;20017;-77
2022/04/18 00:35:07;;;;;;;2.95;2.15;;;;;;;;;;7707115;23;20024;-77
2022/04/18 00:38:12;;;;;;;4.88;2.38;;;;;;;;;;7720563;23;20016;-76
2022/04/18 00:41:18;;;;;;;2.42;2.03;;;;;;;;;;7720609;23;20023;-77
2022/04/18 00:44:21;;;;;;;3.90;2.22;;;;;;;;;;7708300;23;20426;-77
2022/04/18 00:47:24;;;;;;;4.05;1.98;;;;;;;;;;7707695;23;20096;-77
2022/04/18 00:50:32;;;;;;;3.22;2.00;;;;;;;;;;7720694;23;20021;-78
2022/04/18 00:53:35;;;;;;;;;;;;;;;;;;7707884;23;20486;-77
2022/04/18 00:56:40;;;;;;;2.90;2.03;;;;;;;;;;7707137;23;19970;-76
2022/04/18 00:59:44;;;;;;;3.00;2.20;;;;;;;;;;7708430;23;20019;-76
2022/04/18 01:02:48;;;;;;;3.88;1.90;;;;;;;;;;7708703;23;20039;-78
2022/04/18 01:05:52;;;;;;;4.38;2.30;;;;;;;;;;7709555;23;20020;-78
2022/04/18 01:08:56;;;;;;;3.38;2.20;;;;;;;;;;7722765;23;20017;-75
2022/04/18 01:11:59;;;;;;;3.80;2.40;;;;;;;;;;7710397;23;20451;-78
2022/04/18 01:15:04;;;;;;;3.60;2.03;;;;;;;;;;7711363;23;20432;-76
2022/04/18 01:18:43;;;;;;;4.05;2.72;;;;;;;;;;7695160;23;20718;-77
2022/04/18 01:22:13;;;;;;;3.95;2.15;;;;;;;;;;7676205;23;20021;-77
2022/04/18 01:29:01;;;;;;;2.83;2.10;;;;;;;;;;7710378;23;20016;-77
2022/04/18 01:32:07;;;;;;;2.95;1.83;;;;;;;;;;7721337;23;20020;-77
2022/04/18 01:35:10;;;;;;;3.35;1.83;;;;;;;;;;7709510;23;20452;-77
2022/04/18 01:38:17;;;;;;;2.67;1.80;;;;;;;;;;7722657;23;20021;-78
2022/04/18 01:41:21;;;;;;;3.22;2.22;;;;;;;;;;7709625;23;20021;-77
2022/04/18 01:44:28;;;;;;;2.75;1.90;;;;;;;;;;7721251;23;20330;-77
2022/04/18 01:47:33;;;;;;;3.90;2.40;;;;;;;;;;7723963;23;20027;-77
2022/04/18 01:50:36;;;;;;;3.15;1.90;;;;;;;;;;7712248;23;20023;-75
2022/04/18 01:53:41;;;;;;;2.45;1.60;;;;;;;;;;7708445;23;20016;-78
2022/04/18 01:56:47;;;;;;;2.80;2.10;;;;;;;;;;7721676;23;20347;-77
2022/04/18 01:59:52;;;;;;;3.65;1.98;;;;;;;;;;7723898;23;20021;-78
2022/04/18 02:02:55;;;;;;;2.97;1.83;;;;;;;;;;7709298;23;20059;-77
2022/04/18 02:05:58;;;;;;;3.70;1.90;;;;;;;;;;7708880;23;20071;-76
2022/04/18 02:09:04;;;;;;;;;;;;;;;;;;7722764;23;20021;-77
2022/04/18 02:12:12;;;;;;;4.45;1.83;;;;;;;;;;7722107;23;19916;-77
2022/04/18 02:15:28;;;;;;;3.03;1.95;;;;;;;;;;7720506;23;20091;-77
2022/04/18 02:18:37;;;;;;;3.70;2.10;;;;;;;;;;7721315;23;20314;-77
2022/04/18 02:21:40;;;;;;;5.25;2.30;;;;;;;;;;7710872;23;20110;-77
2022/04/18 02:24:43;;;;;;;3.58;1.80;;;;;;;;;;7710476;23;20020;-77
2022/04/18 02:27:48;;;;;;;3.42;1.80;;;;;;;;;;7708420;23;20016;-77
2022/04/18 02:30:51;;;;;;;4.07;1.85;;;;;;;;;;7709001;23;20032;-76
2022/04/18 02:33:56;;;;;;;2.45;1.75;;;;;;;;;;7723575;23;20016;-78
2022/04/18 02:37:02;;;;;;;3.28;1.85;;;;;;;;;;7720869;23;20020;-77
2022/04/18 02:40:09;;;;;;;3.72;1.90;;;;;;;;;;7708644;23;20022;-78
2022/04/18 02:43:14;;;;;;;4.32;1.98;;;;;;;;;;7709329;23;20023;-78
2022/04/18 02:46:24;;;;;;;2.97;2.10;;;;;;;;;;7709408;23;20135;-76
2022/04/18 02:49:32;;;;;;;5.47;2.15;;;;;;;;;;7720614;23;20016;-77
2022/04/18 02:52:36;;;;;;;3.42;2.03;;;;;;;;;;7708822;23;20030;-75
2022/04/18 02:55:40;;;;;;;3.15;2.28;;;;;;;;;;7709299;23;20016;-75
2022/04/18 02:58:44;;;;;;;3.17;2.30;;;;;;;;;;7708152;23;20032;-77
2022/04/18 03:01:47;;;;;;;4.50;2.10;;;;;;;;;;7708583;23;20017;-77
2022/04/18 03:04:55;;;;;;;5.68;2.00;;;;;;;;;;7721536;23;20123;-77
2022/04/18 03:07:58;;;;;;;2.67;1.83;;;;;;;;;;7710235;23;20017;-77
2022/04/18 03:11:05;;;;;;;3.65;2.10;;;;;;;;;;7707748;23;20028;-78
2022/04/18 03:14:13;;;;;;;5.13;2.10;;;;;;;;;;7721025;23;20017;-78
2022/04/18 03:17:18;;;;;;;5.28;2.45;;;;;;;;;;7721515;23;20027;-75
2022/04/18 03:20:21;;;;;;;2.88;2.13;;;;;;;;;;7707619;23;20021;-76
2022/04/18 03:23:24;;;;;;;4.07;2.25;;;;;;;;;;7708611;23;20016;-77
2022/04/18 03:26:46;;;;;;;3.17;2.15;;;;;;;;;;7710115;23;20021;-76
2022/04/18 03:29:51;;;;;;;;;;;;;;;;;;7722092;23;20096;-77
2022/04/18 03:33:04;;;;;;;7.40;2.83;;;;;;;;;;7719671;23;19927;-76
2022/04/18 03:42:48;;;;;;;6.63;2.17;;;;;;;;;;7720721;23;20027;-77
2022/04/18 03:45:54;;;;;;;2.97;1.90;;;;;;;;;;7719440;23;20017;-75
2022/04/18 03:48:58;;;;;;;9.13;2.47;;;;;;;;;;7708048;23;20027;-77
2022/04/18 03:52:02;;;;;;;4.13;2.17;;;;;;;;;;7709946;23;20439;-77
2022/04/18 03:55:05;;;;;;;4.38;2.60;;;;;;;;;;7707238;23;20039;-75
2022/04/18 03:58:11;;;;;;;4.07;2.28;;;;;;;;;;7719994;23;20055;-77
2022/04/18 04:01:14;;;;;;;5.25;2.92;;;;;;;;;;7708661;23;20027;-78
2022/04/18 04:04:23;;;;;;;4.18;2.28;;;;;;;;;;7720624;23;20020;-78
2022/04/18 04:07:27;;;;;;;4.50;2.35;;;;;;;;;;7707496;23;20033;-79
2022/04/18 04:10:44;;;;;;;4.97;2.20;;;;;;;;;;7707721;23;20020;-80
2022/04/18 04:13:47;;;;;;;3.00;2.03;;;;;;;;;;7708684;23;20063;-79
2022/04/18 04:16:53;;;;;;;3.58;2.22;;;;;;;;;;7720116;23;20071;-79
2022/04/18 04:20:00;;;;;;;5.78;3.20;;;;;;;;;;7719822;23;20028;-77
2022/04/18 04:23:10;;;;;;;3.00;2.28;;;;;;;;;;7712947;23;20050;-78
2022/04/18 04:26:30;;;;;;;7.18;2.65;;;;;;;;;;7711528;23;20017;-79
2022/04/18 04:29:36;;;;;;;7.82;3.33;;;;;;;;;;7719716;23;20514;-79
2022/04/18 04:32:48;;;;;;;6.47;2.40;;;;;;;;;;7719981;23;20447;-77
2022/04/18 04:35:56;;;;;;;4.95;2.50;;;;;;;;;;7720625;23;20020;-76
2022/04/18 04:39:00;;;;;;;9.00;2.20;;;;;;;;;;7710527;23;20020;-77
2022/04/18 04:42:09;;;;;;;10.90;2.17;;;;;;;;;;7722162;23;20021;-76
2022/04/18 04:45:17;;;;;;;3.92;2.20;;;;;;;;;;7722511;23;20028;-77
2022/04/18 04:48:46;;;;;;;4.72;2.42;;;;;;;;;;7677784;23;20028;-76
2022/04/18 04:51:54;;;;;;;13.52;2.67;;;;;;;;;;7710224;23;20027;-78
2022/04/18 04:54:59;;;;;;;4.18;2.60;;;;;;;;;;7721601;23;20028;-77
2022/04/18 04:58:19;;;;;;;3.58;1.98;;;;;;;;;;7722539;23;20016;-76
2022/04/18 05:01:35;;;;;;;4.88;2.20;;;;;;;;;;7723575;23;20016;-77
2022/04/18 05:04:40;;;;;;;4.30;2.30;;;;;;;;;;7709791;23;20020;-77
2022/04/18 05:07:47;;;;;;;3.38;2.28;;;;;;;;;;7709290;23;20056;-76
2022/04/18 05:10:54;;;;;;;9.77;4.78;;;;;;;;;;7722694;23;20023;-76
2022/04/18 05:14:06;;;;;;;11.75;3.10;;;;;;;;;;7722875;23;20017;-76
2022/04/18 05:17:16;;;;;;;4.55;2.60;;;;;;;;;;7721674;23;20091;-79
2022/04/18 05:20:28;;;;;;;5.93;2.50;;;;;;;;;;7721877;23;20017;-78
2022/04/18 05:23:34;;;;;;;5.53;2.30;;;;;;;;;;7710246;23;20038;-79
2022/04/18 05:26:38;;;;;;;3.15;2.38;;;;;;;;;;7709789;23;20020;-75
2022/04/18 05:29:41;;;;;;;3.65;2.55;;;;;;;;;;7708699;23;20086;-76
2022/04/18 05:32:47;;;;;;;;;;;;;;;;;;7724232;23;20380;-78
2022/04/18 05:35:49;;;;;;;5.28;2.45;;;;;;;;;;7711574;23;19915;-78
2022/04/18 05:38:58;;;;;;;6.75;3.00;;;;;;;;;;7721201;23;20070;-79
2022/04/18 05:42:08;;;;;;;4.53;2.47;;;;;;;;;;7721454;23;20056;-78
2022/04/18 05:45:12;;;;;;;6.25;2.33;;;;;;;;;;7709726;23;20021;-77
2022/04/18 05:48:17;;;;;;;3.15;2.25;;;;;;;;;;7722355;23;20024;-78
2022/04/18 05:51:24;;;;;;;5.75;2.47;;;;;;;;;;7720540;23;20016;-77
2022/04/18 05:54:29;;;;;;;5.38;3.38;;;;;;;;;;7709043;23;20022;-78
2022/04/18 05:57:35;;;;;;;7.68;3.58;;;;;;;;;;7723657;23;20021;-77
2022/04/18 06:00:39;;;;;;;5.80;3.38;;;;;;;;;;7708498;23;20278;-78
2022/04/18 06:03:43;;;;;;;5.25;2.88;;;;;;;;;;7708599;23;20456;-77
2022/04/18 06:06:46;;;;;;;4.32;2.63;;;;;;;;;;7709414;23;20027;-78
2022/04/18 06:09:52;;;;;;;4.65;2.75;;;;;;;;;;7709438;23;20051;-77
2022/04/18 06:12:57;;;;;;;3.70;2.40;;;;;;;;;;7720861;23;20339;-77
2022/04/18 06:16:00;;;;;;;3.33;2.45;;;;;;;;;;7709195;23;20313;-77
2022/04/18 06:19:05;;;;;;;6.60;2.45;;;;;;;;;;7722084;23;20148;-77
2022/04/18 06:22:08;;;;;;;6.22;2.63;;;;;;;;;;7708515;23;20447;-78
2022/04/18 06:25:13;;;;;;;4.18;2.30;;;;;;;;;;7708335;23;20343;-75
2022/04/18 06:28:16;;;;;;;3.83;2.67;;;;;;;;;;7710877;23;20025;-78
2022/04/18 06:31:21;;;;;;;3.47;2.42;;;;;;;;;;7721453;23;20032;-79
2022/04/18 06:34:31;;;;;;;4.68;2.50;;;;;;;;;;7719987;23;20035;-78
2022/04/18 06:37:46;;;;;;;3.95;2.05;;;;;;;;;;7719783;23;20020;-79
2022/04/18 06:41:31;;;;;;;3.45;2.20;;;;;;;;;;7693321;23;20329;-78
2022/04/18 06:44:36;;;;;;;3.95;2.58;;;;;;;;;;7721845;23;20075;-78
2022/04/18 06:47:41;;;;;;;4.20;2.63;;;;;;;;;;7720537;23;20013;-77
2022/04/18 06:51:04;;;;;;;3.95;2.50;;;;;;;;;;7678139;23;20028;-76
2022/04/18 06:54:25;;;;;;;4.45;2.67;;;;;;;;;;7710721;23;20074;-76
2022/04/18 06:57:48;;;;;;;3.42;2.45;;;;;;;;;;7721489;23;20044;-77
2022/04/18 07:00:54;;;;;;;2.97;2.05;;;;;;;;;;7720091;23;20021;-77
2022/04/18 07:03:59;;;;;;;2.80;2.00;;;;;;;;;;7708377;23;20031;-76
2022/04/18 07:07:02;;;;;;;5.40;2.10;;;;;;;;;;7710906;23;20017;-74
2022/04/18 07:10:05;;;;;;;2.70;2.08;;;;;;;;;;7708569;23;20028;-76
2022/04/18 07:13:11;;;;;;;5.80;2.50;;;;;;;;;;7707768;23;20017;-77
2022/04/18 07:16:17;;;;;;;3.50;2.30;;;;;;;;;;7721074;23;20023;-77
2022/04/18 07:19:20;;;;;;;4.75;2.47;;;;;;;;;;7708696;23;20023;-76
2022/04/18 07:22:24;;;;;;;4.07;2.40;;;;;;;;;;7707979;23;20102;-77
2022/04/18 07:25:30;;;;;;;4.03;2.33;;;;;;;;;;7715351;23;20023;-76
2022/04/18 07:28:59;;;;;;;3.63;2.40;;;;;;;;;;7720819;23;20027;-77
2022/04/18 07:32:03;;;;;;;4.00;2.25;;;;;;;;;;7708471;23;20356;-77
2022/04/18 07:35:07;;;;;;;7.28;2.42;;;;;;;;;;7707279;23;20071;-76
2022/04/18 07:41:41;;;;;;;3.50;2.40;;;;;;;;;;7720941;23;20012;-75
2022/04/18 07:44:48;;;;;;;3.80;2.33;;;;;;;;;;7720534;23;20021;-77
2022/04/18 07:47:54;;;;;;;3.65;2.55;;;;;;;;;;7720177;23;20178;-77
2022/04/18 07:54:20;;;;;;;4.45;2.50;;;;;;;;;;7709706;23;20023;-77
2022/04/18 07:57:24;;;;;;;4.72;2.45;;;;;;;;;;7719642;23;20027;-78
2022/04/18 08:00:33;;;;;;;3.75;2.50;;;;;;;;;;7719970;23;20017;-78
2022/04/18 08:03:37;;;;;;;;;;;;;;;;;;7721192;23;20281;-76
2022/04/18 08:06:41;;;;;;;3.17;2.58;;;;;;;;;;7708257;23;20338;-76
2022/04/18 08:09:57;;;;;;;4.07;2.55;;;;;;;;;;7719358;23;20028;-78
2022/04/18 08:13:00;;;;;;;4.22;2.38;;;;;;;;;;7707554;23;20021;-78
2022/04/18 08:16:14;;;;;;;5.68;2.42;;;;;;;;;;7722482;23;20452;-79
2022/04/18 08:19:23;;;;;;;5.47;2.22;;;;;;;;;;7720307;23;20021;-79
2022/04/18 08:22:26;;;;;;;2.45;2.03;;;;;;;;;;7707103;23;20055;-78
2022/04/18 08:25:47;;;;;;;4.22;2.65;;;;;;;;;;7715565;23;20348;-79
2022/04/18 08:29:21;;;;;;;3.33;2.30;;;;;;;;;;7694303;23;20039;-79
2022/04/18 08:32:46;;;;;;;4.57;2.40;;;;;;;;;;7720667;23;20043;-78
2022/04/18 08:35:51;;;;;;;4.85;2.58;;;;;;;;;;7719065;23;20025;-76
2022/04/18 08:38:55;;;;;;;3.03;2.28;;;;;;;;;;7707847;23;20452;-78
2022/04/18 08:42:14;;;;;;;3.95;2.55;;;;;;;;;;7721127;23;20020;-77
2022/04/18 08:45:23;;;;;;;3.70;2.60;;;;;;;;;;7719696;23;20021;-79
2022/04/18 08:55:28;;;;;;;3.30;2.45;;;;;;;;;;7705780;23;20027;-77
2022/04/18 08:58:31;;;;;;;3.83;2.42;;;;;;;;;;7706723;23;20048;-78
2022/04/18 09:01:35;;;;;;;6.55;3.50;;;;;;;;;;7708081;23;20027;-78
2022/04/18 09:05:03;;;;;;;4.63;2.83;;;;;;;;;;7666879;23;20021;-83
2022/04/18 09:08:07;;;;;;;4.53;2.75;;;;;;;;;;7720379;23;20017;-81
2022/04/18 09:11:25;;;;;;;3.15;2.00;;;;;;;;;;7707779;23;20017;-82
2022/04/18 09:14:31;;;;;;;3.33;2.30;;;;;;;;;;7719467;23;20043;-79
2022/04/18 09:17:35;;;;;;;2.97;2.05;;;;;;;;;;7707634;23;20017;-79
2022/04/18 09:20:59;;;;;;;4.32;2.30;;;;;;;;;;7722043;23;20020;-77
2022/04/18 09:24:07;;;;;;;3.78;2.00;;;;;;;;;;7710730;23;20017;-83
2022/04/18 09:27:26;;;;;;;3.50;2.40;;;;;;;;;;7708991;23;20020;-81
2022/04/18 09:30:37;;;;;;;3.67;1.95;;;;;;;;;;7722351;23;20020;-82
2022/04/18 09:33:43;;;;;;;2.38;1.88;;;;;;;;;;7710758;23;20200;-82
2022/04/18 09:37:09;;;;;;;3.00;2.05;;;;;;;;;;7721624;23;20036;-80
2022/04/18 09:40:12;;;;;;;4.55;2.50;;;;;;;;;;7721159;23;20017;-79
2022/04/18 09:43:15;;;;;;;3.47;2.00;;;;;;;;;;7709964;23;20020;-80
2022/04/18 09:46:19;;;;;;;5.15;2.40;;;;;;;;;;7709803;23;20020;-80
2022/04/18 09:49:36;;;;;;;3.53;2.17;;;;;;;;;;7721003;23;20459;-80
2022/04/18 09:52:45;;;;;;;2.85;2.30;;;;;;;;;;7718066;23;20020;-87
2022/04/18 09:55:48;;;;;;;4.57;3.20;;;;;;;;;;7711427;23;20020;-81
2022/04/18 09:58:53;;;;;;;26.60;14.18;;;;;;;;;;7711063;23;20025;-83
2022/04/18 10:02:13;;;;;;;5.13;2.40;;;;;;;;;;7722559;23;20399;-80
2022/04/18 10:05:16;;;;;;;3.25;2.20;;;;;;;;;;7711273;23;20024;-81
2022/04/18 10:08:21;;;;;;;2.28;1.90;;;;;;;;;;7709844;23;20436;-84
2022/04/18 10:11:24;;;;;;;2.30;2.00;;;;;;;;;;7722575;23;20027;-83
2022/04/18 10:14:29;;;;;;;2.92;1.58;;;;;;;;;;7721723;23;20323;-86
2022/04/18 10:17:33;;;;;;;4.28;2.78;;;;;;;;;;7711471;23;20347;-81
2022/04/18 10:20:43;;;;;;;2.95;1.90;;;;;;;;;;7711058;23;20020;-78
2022/04/18 10:24:01;;;;;;;2.42;1.58;;;;;;;;;;7712844;23;20016;-81
2022/04/18 10:27:25;;;;;;;6.47;1.80;;;;;;;;;;7665671;23;20029;-81
2022/04/18 10:30:31;;;;;;;3.08;1.83;;;;;;;;;;7723597;23;20380;-81
2022/04/18 10:33:35;;;;;;;3.63;1.75;;;;;;;;;;7723340;23;20095;-81
2022/04/18 10:36:44;;;;;;;2.75;1.63;;;;;;;;;;7708515;23;20020;-85
2022/04/18 10:39:55;;;;;;;2.20;1.80;;;;;;;;;;7723543;23;20017;-90
2022/04/18 10:43:04;;;;;;;2.78;1.80;;;;;;;;;;7722274;23;20024;-87
2022/04/18 10:46:22;;;;;;;4.55;3.15;;;;;;;;;;7710213;23;20012;-88
2022/04/18 10:49:27;;;;;;;5.85;3.30;;;;;;;;;;7707456;23;20028;-85
2022/04/18 10:52:30;;;;;;;3.25;1.90;;;;;;;;;;7720582;23;20040;-81
2022/04/18 10:55:33;;;;;;;3.30;2.00;;;;;;;;;;7711215;23;20016;-82
2022/04/18 10:58:36;;;;;;;2.88;2.10;;;;;;;;;;7709604;23;20024;-79
2022/04/18 11:01:39;;;;;;;3.05;1.90;;;;;;;;;;7708769;23;20050;-80
2022/04/18 11:04:46;;;;;;;4.10;2.15;;;;;;;;;;7711522;23;20031;-81
2022/04/18 11:07:49;;;;;;;2.67;1.73;;;;;;;;;;7718286;23;20096;-77
2022/04/18 11:10:54;;;;;;;2.67;1.95;;;;;;;;;;7709949;23;20138;-76
2022/04/18 11:14:00;;;;;;;4.85;2.00;;;;;;;;;;7683034;23;20016;-83
2022/04/18 11:17:03;;;;;;;3.22;1.98;;;;;;;;;;7707989;23;20219;-84
2022/04/18 11:20:27;;;;;;;2.63;1.70;;;;;;;;;;7708540;23;20335;-85
2022/04/18 11:23:33;;;;;;;2.47;1.80;;;;;;;;;;7714480;23;20487;-82
2022/04/18 11:26:36;;;;;;;3.08;2.10;;;;;;;;;;7708779;23;20020;-77
2022/04/18 11:29:46;;;;;;;4.00;2.38;;;;;;;;;;7720843;23;20020;-81
2022/04/18 11:32:49;;;;;;;1.95;1.83;;;;;;;;;;7706327;23;20343;-80
2022/04/18 11:36:00;;;;;;;4.10;2.17;;;;;;;;;;7708986;23;20024;-80
2022/04/18 11:39:06;;;;;;;2.22;1.80;;;;;;;;;;7723698;23;20020;-79
2022/04/18 11:42:09;;;;;;;3.67;2.10;;;;;;;;;;7708928;23;20403;-79
2022/04/18 11:45:24;;;;;;;3.83;2.00;;;;;;;;;;7709561;23;20028;-83
2022/04/18 11:48:30;;;;;;;3.17;2.00;;;;;;;;;;7723183;23;20091;-77
2022/04/18 11:51:38;;;;;;;4.65;3.28;;;;;;;;;;7707361;23;20130;-77
2022/04/18 11:54:53;;;;;;;30.23;19.30;;;;;;;;;;7707853;23;20042;-76
2022/04/18 11:57:58;;;;;;;6.15;2.60;;;;;;;;;;7722307;23;20454;-77
2022/04/18 12:07:43;;;;;;;3.88;2.20;;;;;;;;;;7718456;23;20069;-76
2022/04/18 12:10:46;;;;;;;2.60;1.80;;;;;;;;;;7708198;23;20024;-76
2022/04/18 12:13:49;;;;;;;2.78;1.75;;;;;;;;;;7709970;23;20016;-77
2022/04/18 12:17:00;;;;;;;2.40;1.80;;;;;;;;;;7720946;23;20356;-77
2022/04/18 12:20:03;;;;;;;;;;;;;;;;;;7709727;23;20348;-78
2022/04/18 12:23:08;;;;;;;2.30;2.08;;;;;;;;;;7709564;23;19945;-78
2022/04/18 12:26:12;;;;;;;6.93;5.05;;;;;;;;;;7707050;23;20017;-81
2022/04/18 12:29:17;;;;;;;4.88;2.67;;;;;;;;;;7720447;23;20444;-76
2022/04/18 12:32:26;;;;;;;3.75;2.25;;;;;;;;;;7708313;23;20344;-86
2022/04/18 12:35:36;;;;;;;2.85;1.83;;;;;;;;;;7721040;23;20670;-75
2022/04/18 12:38:47;;;;;;;3.72;2.15;;;;;;;;;;7720605;23;20017;-76
2022/04/18 12:42:00;;;;;;;18.85;13.00;;;;;;;;;;7720559;23;20020;-75
2022/04/18 12:45:03;;;;;;;2.17;1.80;;;;;;;;;;7719717;23;20460;-76
2022/04/18 12:48:07;;;;;;;9.30;7.68;;;;;;;;;;7705086;23;20027;-75
2022/04/18 12:51:13;;;;;;;3.25;1.95;;;;;;;;;;7718160;23;20023;-75
2022/04/18 12:54:21;;;;;;;4.00;1.73;;;;;;;;;;7708871;23;20038;-75
2022/04/18 12:57:23;;;;;;;2.90;2.20;;;;;;;;;;7720384;23;20099;-77
2022/04/18 13:00:38;;;;;;;5.47;1.70;;;;;;;;;;7722229;23;20021;-77
2022/04/18 13:03:41;;;;;;;1.77;1.65;;;;;;;;;;7721601;23;20100;-79
2022/04/18 13:06:55;;;;;;;3.10;1.88;;;;;;;;;;7710589;23;20020;-76
2022/04/18 13:10:03;;;;;;;2.60;1.80;;;;;;;;;;7722795;23;20016;-78
2022/04/18 13:13:07;;;;;;;2.60;1.80;;;;;;;;;;7723338;23;20054;-77
2022/04/18 13:16:22;;;;;;;1.88;1.65;;;;;;;;;;7711991;23;20019;-76
2022/04/18 13:19:28;;;;;;;2.05;1.83;;;;;;;;;;7724390;23;20452;-79
2022/04/18 13:22:31;;;;;;;6.43;3.08;;;;;;;;;;7711692;23;20328;-78
2022/04/18 13:25:35;;;;;;;15.05;10.35;;;;;;;;;;7710261;23;20047;-78
2022/04/18 13:28:40;;;;;;;2.33;1.90;;;;;;;;;;7711705;23;20025;-79
2022/04/18 13:31:45;;;;;;;9.73;8.43;;;;;;;;;;7724358;23;20021;-75
2022/04/18 13:34:48;;;;;;;13.55;9.50;;;;;;;;;;7709239;23;20383;-75
2022/04/18 13:37:51;;;;;;;2.85;2.10;;;;;;;;;;7711114;23;20028;-77
2022/04/18 13:40:56;;;;;;;2.10;1.63;;;;;;;;;;7710660;23;20016;-76
2022/04/18 13:43:59;;;;;;;3.03;2.38;;;;;;;;;;7711065;23;20027;-79
2022/04/18 13:47:03;;;;;;;3.60;2.90;;;;;;;;;;7710444;23;20044;-79
2022/04/18 13:50:07;;;;;;;6.67;2.97;;;;;;;;;;7709444;23;20024;-77
2022/04/18 13:53:09;;;;;;;10.18;7.82;;;;;;;;;;7709652;23;20060;-78
2022/04/18 13:56:14;;;;;;;8.93;5.72;;;;;;;;;;7708122;23;20021;-77
2022/04/18 13:59:19;;;;;;;4.78;3.15;;;;;;;;;;7723404;23;20458;-77
2022/04/18 14:02:25;;;;;;;3.22;2.75;;;;;;;;;;7724149;23;20020;-78
2022/04/18 14:05:28;;;;;;;7.47;2.90;;;;;;;;;;7710262;23;20016;-75
2022/04/18 14:08:32;;;;;;;7.22;2.80;;;;;;;;;;7708664;23;20020;-76
2022/04/18 14:11:40;;;;;;;4.38;2.70;;;;;;;;;;7710974;23;20052;-74
2022/04/18 14:21:27;;;;;;;3.28;2.30;;;;;;;;;;7721281;23;20071;-74
2022/04/18 14:24:30;;;;;;;2.92;2.22;;;;;;;;;;7711084;23;20119;-73
2022/04/18 14:27:35;;;;;;;3.47;2.55;;;;;;;;;;7723446;23;20388;-78
2022/04/18 14:30:40;;;;;;;3.35;2.40;;;;;;;;;;7710110;23;20016;-82
2022/04/18 14:33:45;;;;;;;3.50;2.20;;;;;;;;;;7721621;23;20091;-78
2022/04/18 14:36:51;;;;;;;4.55;2.13;;;;;;;;;;7721974;23;20515;-80
2022/04/18 14:39:54;;;;;;;3.53;2.50;;;;;;;;;;7710898;23;20021;-79
2022/04/18 14:42:59;;;;;;;;;;;;;;;;;;7721648;23;20091;-79
2022/04/18 14:46:03;;;;;;;3.55;2.42;;;;;;;;;;7711137;23;19915;-78
2022/04/18 14:49:06;;;;;;;1.90;1.75;;;;;;;;;;7710640;23;20066;-77
2022/04/18 14:52:12;;;;;;;26.77;14.77;;;;;;;;;;7721608;23;20020;-77
2022/04/18 14:55:15;;;;;;;6.53;4.57;;;;;;;;;;7710579;23;20024;-76
2022/04/18 14:58:20;;;;;;;2.80;2.10;;;;;;;;;;7721675;23;20020;-78
2022/04/18 15:01:25;;;;;;;2.95;1.92;;;;;;;;;;7709797;23;20027;-77
2022/04/18 15:04:28;;;;;;;3.35;2.25;;;;;;;;;;7708905;23;20017;-77
2022/04/18 15:07:31;;;;;;;2.92;2.00;;;;;;;;;;7710929;23;20095;-74
2022/04/18 15:10:34;;;;;;;2.45;1.67;;;;;;;;;;7708794;23;20095;-75
2022/04/18 15:13:37;;;;;;;2.90;2.10;;;;;;;;;;7707742;23;20020;-76
2022/04/18 15:16:42;;;;;;;4.18;1.98;;;;;;;;;;7711012;23;20016;-76
2022/04/18 15:19:45;;;;;;;3.88;1.70;;;;;;;;;;7711314;23;20017;-76
2022/04/18 15:22:48;;;;;;;2.95;2.00;;;;;;;;;;7709087;23;20036;-75
2022/04/18 15:25:51;;;;;;;3.90;2.25;;;;;;;;;;7708490;23;20100;-75
2022/04/18 15:28:54;;;;;;;3.70;2.20;;;;;;;;;;7710496;23;20021;-84
2022/04/18 15:35:19;;;;;;;2.42;1.70;;;;;;;;;;7712123;23;20031;-87
2022/04/18 15:38:22;;;;;;;4.60;1.90;;;;;;;;;;7709155;23;20017;-78
2022/04/18 15:41:28;;;;;;;2.55;1.58;;;;;;;;;;7721826;23;20044;-84
2022/04/18 15:44:34;;;;;;;2.83;1.58;;;;;;;;;;7709263;23;20024;-83
2022/04/18 15:47:46;;;;;;;2.35;1.63;;;;;;;;;;7708262;23;20447;-84
2022/04/18 15:50:49;;;;;;;2.17;1.77;;;;;;;;;;7708682;23;20020;-85
2022/04/18 15:53:52;;;;;;;4.18;1.70;;;;;;;;;;7708527;23;20016;-79
2022/04/18 15:56:56;;;;;;;2.10;1.50;;;;;;;;;;7709677;23;20017;-82
2022/04/18 15:59:59;;;;;;;2.67;1.45;;;;;;;;;;7709108;23;20028;-84
2022/04/18 16:03:04;;;;;;;11.10;8.00;;;;;;;;;;7708864;23;20024;-85
2022/04/18 16:06:12;;;;;;;86.75;46.97;;;;;;;;;;7721937;23;20352;-81
2022/04/18 16:09:16;;;;;;;4.53;2.10;;;;;;;;;;7709049;23;20137;-82
2022/04/18 16:12:20;;;;;;;2.47;1.58;;;;;;;;;;7708872;23;20362;-82
2022/04/18 16:15:23;;;;;;;2.72;1.60;;;;;;;;;;7708258;23;20023;-83
2022/04/18 16:18:28;;;;;;;2.97;1.58;;;;;;;;;;7708625;23;20031;-81
2022/04/18 16:21:31;;;;;;;4.68;1.85;;;;;;;;;;7710534;23;20017;-80
2022/04/18 16:24:37;;;;;;;4.38;2.78;;;;;;;;;;7710816;23;20021;-87
2022/04/18 16:27:39;;;;;;;3.60;1.80;;;;;;;;;;7720041;23;20017;-83
2022/04/18 16:34:06;;;;;;;2.15;1.85;;;;;;;;;;7720454;23;19916;-83
2022/04/18 16:37:10;;;;;;;3.97;1.67;;;;;;;;;;7709696;23;20016;-82
2022/04/18 16:40:12;;;;;;;2.47;1.80;;;;;;;;;;7709845;23;20114;-81
2022/04/18 16:46:35;;;;;;;2.13;1.73;;;;;;;;;;7665156;23;20051;-81
2022/04/18 16:49:40;;;;;;;4.53;1.95;;;;;;;;;;7709356;23;20016;-84
2022/04/18 16:52:42;;;;;;;3.03;1.90;;;;;;;;;;7708392;23;20021;-83
2022/04/18 16:55:48;;;;;;;3.25;2.10;;;;;;;;;;7723235;23;20020;-81
2022/04/18 16:58:51;;;;;;;2.15;1.90;;;;;;;;;;7710720;23;20016;-79
2022/04/18 17:01:54;;;;;;;3.22;1.90;;;;;;;;;;7710851;23;20020;-83
2022/04/18 17:04:58;;;;;;;4.03;2.20;;;;;;;;;;7710723;23;20697;-83
2022/04/18 17:08:02;;;;;;;3.15;1.95;;;;;;;;;;7711165;23;20020;-84
2022/04/18 17:11:04;;;;;;;3.78;1.92;;;;;;;;;;7709719;23;20036;-79
2022/04/18 17:14:07;;;;;;;3.20;2.22;;;;;;;;;;7711788;23;20329;-81
2022/04/18 17:17:13;;;;;;;2.90;1.65;;;;;;;;;;7723129;23;20100;-81
2022/04/18 17:20:17;;;;;;;3.30;2.10;;;;;;;;;;7711839;23;20021;-79
2022/04/18 17:23:20;;;;;;;3.33;2.20;;;;;;;;;;7708782;23;20020;-79
2022/04/18 17:26:25;;;;;;;2.45;1.95;;;;;;;;;;7714304;23;20467;-81
2022/04/18 17:29:30;;;;;;;5.30;2.90;;;;;;;;;;7724627;23;20016;-81
2022/04/18 17:32:34;;;;;;;4.82;3.10;;;;;;;;;;7711054;23;20024;-81
2022/04/18 17:35:43;;;;;;;16.40;10.32;;;;;;;;;;7722507;23;20024;-82
2022/04/18 17:38:46;;;;;;;5.60;3.60;;;;;;;;;;7712749;23;20016;-85
2022/04/18 17:41:49;;;;;;;4.45;2.95;;;;;;;;;;7711775;23;20106;-82
2022/04/18 17:44:52;;;;;;;6.47;3.20;;;;;;;;;;7709665;23;20490;-84
2022/04/18 17:47:55;;;;;;;5.43;3.15;;;;;;;;;;7710513;23;20096;-84
2022/04/18 17:51:00;;;;;;;3.75;3.08;;;;;;;;;;7710160;23;20016;-86
2022/04/18 17:57:23;;;;;;;5.18;3.17;;;;;;;;;;7723655;23;20032;-84
2022/04/18 18:00:26;;;;;;;4.47;2.95;;;;;;;;;;7710177;23;20021;-83
2022/04/18 18:03:29;;;;;;;5.32;3.20;;;;;;;;;;7710719;23;20051;-82
2022/04/18 18:06:36;;;;;;;5.28;3.15;;;;;;;;;;7708407;23;20101;-80
2022/04/18 18:09:39;;;;;;;5.35;3.17;;;;;;;;;;7722259;23;20020;-80
2022/04/18 18:12:42;;;;;;;5.53;2.92;;;;;;;;;;7709831;23;20012;-85
2022/04/18 18:15:45;;;;;;;6.57;3.28;;;;;;;;;;7709810;23;20016;-84
2022/04/18 18:18:48;;;;;;;3.97;3.17;;;;;;;;;;7711142;23;20321;-83
2022/04/18 18:21:53;;;;;;;4.90;3.30;;;;;;;;;;7711128;23;20020;-84
2022/04/18 18:24:56;;;;;;;4.30;3.20;;;;;;;;;;7708377;23;20940;-84
2022/04/18 18:27:59;;;;;;;6.72;3.25;;;;;;;;;;7722574;23;20022;-83
2022/04/18 18:31:02;;;;;;;5.97;3.10;;;;;;;;;;7709401;23;20063;-81
2022/04/18 18:34:06;;;;;;;6.27;3.40;;;;;;;;;;7711158;23;20318;-80
2022/04/18 18:37:11;;;;;;;5.18;3.25;;;;;;;;;;7707834;23;20257;-82
2022/04/18 18:40:15;;;;;;;5.97;3.60;;;;;;;;;;7723612;23;20023;-81
2022/04/18 18:43:18;;;;;;;6.75;3.60;;;;;;;;;;7710975;23;20212;-80
2022/04/18 18:46:21;;;;;;;4.63;3.15;;;;;;;;;;7709847;23;20022;-78
2022/04/18 18:49:26;;;;;;;5.45;3.35;;;;;;;;;;7721114;23;20027;-75
2022/04/18 18:52:30;;;;;;;5.18;3.50;;;;;;;;;;7708932;23;20387;-78
2022/04/18 18:55:33;;;;;;;5.45;3.28;;;;;;;;;;7708610;23;20028;-77
2022/04/18 18:58:38;;;;;;;6.68;3.65;;;;;;;;;;7720005;23;20016;-77
2022/04/18 19:01:44;;;;;;;51.63;28.13;;;;;;;;;;7710713;23;20066;-84
2022/04/18 19:04:47;;;;;;;7.05;3.78;;;;;;;;;;7708995;23;20020;-82
2022/04/18 19:07:51;;;;;;;6.18;3.60;;;;;;;;;;7707774;23;20095;-80
2022/04/18 19:10:54;;;;;;;4.55;3.13;;;;;;;;;;7708580;23;20020;-80
2022/04/18 19:14:00;;;;;;;3.50;2.88;;;;;;;;;;7710828;23;20454;-81
2022/04/18 19:27:08;;;;;;;11.65;4.20;;;;;;;;;;7710400;23;20125;-77
2022/04/18 19:30:12;;;;;;;7.90;3.38;;;;;;;;;;7710053;23;20479;-77
2022/04/18 19:33:14;;;;;;;5.15;3.30;;;;;;;;;;7708483;23;20023;-78
2022/04/18 19:36:21;;;;;;;5.15;3.67;;;;;;;;;;7710371;23;20335;-77
2022/04/18 19:39:25;;;;;;;6.32;3.55;;;;;;;;;;7723207;23;20032;-77